createdAt,value
2019-06-15T00:00:10.284Z,20.80
2019-06-15T00:02:39.077Z,20.80
2019-06-15T00:05:09.225Z,20.80
2019-06-15T00:07:37.805Z,20.80
2019-06-15T00:10:07.614Z,20.80
2019-06-15T00:12:38.008Z,20.80
2019-06-15T00:15:07.450Z,20.80
2019-06-15T00:17:35.887Z,20.90
2019-06-15T00:20:08.483Z,21.00
2019-06-15T00:22:37.057Z,20.90
2019-06-15T00:25:08.420Z,20.90
2019-06-15T00:27:36.975Z,21.00
2019-06-15T00:30:10.285Z,21.00
2019-06-15T00:32:40.336Z,21.00
2019-06-15T00:35:10.112Z,21.00
2019-06-15T00:37:40.520Z,20.90
2019-06-15T00:40:09.652Z,20.90
2019-06-15T00:42:38.174Z,20.90
2019-06-15T00:45:07.444Z,20.90
2019-06-15T00:47:36.214Z,20.90
2019-06-15T00:50:06.712Z,20.90
2019-06-15T00:52:35.344Z,20.90
2019-06-15T00:55:06.132Z,21.00
2019-06-15T00:57:38.306Z,20.90
2019-06-15T01:00:12.200Z,20.90
2019-06-15T01:02:42.175Z,20.80
2019-06-15T01:05:10.944Z,20.70
2019-06-15T01:07:39.459Z,20.70
2019-06-15T01:10:09.264Z,20.70
2019-06-15T01:12:37.796Z,20.70
2019-06-15T01:15:07.267Z,20.80
2019-06-15T01:17:35.984Z,20.80
2019-06-15T01:20:06.376Z,20.70
2019-06-15T01:22:34.808Z,20.60
2019-06-15T01:25:06.103Z,20.50
2019-06-15T01:27:34.728Z,20.50
2019-06-15T01:30:05.043Z,20.40
2019-06-15T01:32:33.552Z,20.40
2019-06-15T01:35:01.994Z,20.40
2019-06-15T01:37:30.463Z,20.40
2019-06-15T01:39:58.892Z,20.40
2019-06-15T01:42:27.370Z,20.40
2019-06-15T01:44:55.874Z,20.40
2019-06-15T01:47:24.418Z,20.40
2019-06-15T01:49:52.966Z,20.40
2019-06-15T01:52:25.722Z,20.40
2019-06-15T01:54:54.168Z,20.40
2019-06-15T01:57:22.782Z,20.30
2019-06-15T01:59:51.961Z,20.30
2019-06-15T02:02:20.435Z,20.20
2019-06-15T02:04:49.187Z,20.10
2019-06-15T02:07:17.618Z,19.90
2019-06-15T02:09:46.083Z,19.90
2019-06-15T02:12:14.523Z,19.80
2019-06-15T02:14:42.982Z,19.80
2019-06-15T02:17:11.728Z,19.80
2019-06-15T02:19:40.198Z,19.70
2019-06-15T02:22:08.666Z,19.80
2019-06-15T02:24:37.184Z,19.80
2019-06-15T02:27:05.791Z,19.80
2019-06-15T02:29:34.261Z,19.70
2019-06-15T02:32:02.721Z,19.80
2019-06-15T02:34:31.199Z,19.70
2019-06-15T02:36:59.708Z,19.70
2019-06-15T02:39:28.837Z,19.70
2019-06-15T02:41:57.316Z,19.70
2019-06-15T02:44:44.640Z,19.60
2019-06-15T02:47:13.095Z,19.60
2019-06-15T02:49:41.533Z,19.50
2019-06-15T02:52:10.380Z,19.50
2019-06-15T02:54:38.970Z,19.50
2019-06-15T02:57:07.478Z,19.40
2019-06-15T02:59:35.936Z,19.30
2019-06-15T03:02:04.732Z,19.30
2019-06-15T03:04:33.279Z,19.20
2019-06-15T03:07:01.785Z,19.20
2019-06-15T03:09:31.121Z,19.20
2019-06-15T03:12:00.266Z,19.30
2019-06-15T03:14:29.559Z,19.40
2019-06-15T03:16:58.229Z,19.40
2019-06-15T03:19:26.754Z,19.40
2019-06-15T03:21:55.279Z,19.50
2019-06-15T03:24:24.407Z,19.50
2019-06-15T03:26:52.862Z,19.50
2019-06-15T03:29:21.323Z,19.60
2019-06-15T03:31:49.836Z,19.50
2019-06-15T03:34:18.579Z,19.50
2019-06-15T03:36:47.014Z,19.50
2019-06-15T03:39:15.484Z,19.50
2019-06-15T03:41:46.696Z,19.50
2019-06-15T03:44:15.227Z,19.50
2019-06-15T03:46:43.679Z,19.60
2019-06-15T03:49:12.151Z,19.60
2019-06-15T03:51:40.590Z,19.50
2019-06-15T03:54:09.054Z,19.30
2019-06-15T03:56:37.506Z,19.20
2019-06-15T03:59:06.094Z,18.90
2019-06-15T04:01:40.528Z,18.80
2019-06-15T04:04:09.423Z,18.60
2019-06-15T04:06:37.868Z,18.50
2019-06-15T04:09:07.836Z,18.50
2019-06-15T04:11:36.339Z,18.40
2019-06-15T04:14:05.334Z,18.40
2019-06-15T04:16:35.435Z,18.40
2019-06-15T04:19:05.219Z,18.40
2019-06-15T04:21:33.875Z,18.30
2019-06-15T04:24:02.396Z,18.40
2019-06-15T04:26:36.129Z,18.50
2019-06-15T04:29:01.019Z,18.50
2019-06-15T04:31:29.479Z,18.50
2019-06-15T04:33:58.050Z,18.50
2019-06-15T04:36:26.532Z,18.50
2019-06-15T04:38:54.958Z,18.60
2019-06-15T04:41:23.499Z,18.60
2019-06-15T04:43:51.938Z,18.60
2019-06-15T04:46:20.413Z,18.70
2019-06-15T04:48:48.855Z,18.80
2019-06-15T04:51:17.315Z,18.80
2019-06-15T04:53:45.756Z,18.80
2019-06-15T04:56:14.215Z,18.80
2019-06-15T04:58:42.654Z,18.80
2019-06-15T05:01:11.119Z,18.90
2019-06-15T05:03:39.582Z,18.90
2019-06-15T05:06:08.098Z,19.00
2019-06-15T05:08:36.895Z,19.00
2019-06-15T05:11:05.366Z,19.10
2019-06-15T05:13:33.814Z,19.10
2019-06-15T05:16:02.270Z,19.20
2019-06-15T05:18:30.707Z,19.30
2019-06-15T05:20:59.173Z,19.40
2019-06-15T05:23:27.683Z,19.40
2019-06-15T05:25:56.140Z,19.50
2019-06-15T05:28:24.619Z,19.60
2019-06-15T05:30:53.152Z,19.70
2019-06-15T05:33:21.586Z,19.80
2019-06-15T05:35:50.049Z,19.80
2019-06-15T05:38:18.780Z,19.90
2019-06-15T05:40:47.235Z,19.90
2019-06-15T05:43:15.674Z,20.00
2019-06-15T05:45:44.143Z,20.00
2019-06-15T05:48:12.584Z,20.00
2019-06-15T05:50:41.032Z,20.00
2019-06-15T05:53:09.495Z,20.10
2019-06-15T05:55:37.942Z,20.10
2019-06-15T05:58:06.459Z,20.10
2019-06-15T06:00:34.970Z,20.00
2019-06-15T06:03:03.443Z,20.00
2019-06-15T06:05:31.887Z,19.80
2019-06-15T06:08:00.355Z,19.80
2019-06-15T06:10:28.790Z,19.80
2019-06-15T06:12:57.248Z,19.90
2019-06-15T06:15:26.933Z,20.00
2019-06-15T06:17:55.511Z,20.00
2019-06-15T06:20:23.949Z,20.10
2019-06-15T06:22:52.402Z,20.20
2019-06-15T06:25:20.928Z,20.20
2019-06-15T06:27:49.380Z,20.30
2019-06-15T06:30:18.197Z,20.30
2019-06-15T06:32:46.711Z,20.40
2019-06-15T06:35:15.586Z,20.50
2019-06-15T06:37:44.086Z,20.70
2019-06-15T06:40:12.799Z,20.70
2019-06-15T06:42:41.531Z,20.80
2019-06-15T06:45:11.089Z,20.80
2019-06-15T06:47:40.359Z,20.90
2019-06-15T06:50:09.457Z,20.90
2019-06-15T06:52:37.914Z,21.00
2019-06-15T06:55:06.783Z,21.00
2019-06-15T06:57:35.276Z,21.00
2019-06-15T07:00:07.824Z,21.10
2019-06-15T07:02:36.287Z,21.00
2019-06-15T07:05:06.383Z,21.00
2019-06-15T07:07:35.276Z,21.10
2019-06-15T07:10:05.689Z,21.30
2019-06-15T07:12:34.247Z,21.40
2019-06-15T07:15:04.720Z,21.50
2019-06-15T07:17:32.928Z,21.60
2019-06-15T07:20:01.488Z,21.80
2019-06-15T07:22:30.025Z,22.00
2019-06-15T07:24:58.454Z,22.20
2019-06-15T07:27:26.943Z,22.40
2019-06-15T07:29:55.381Z,22.60
2019-06-15T07:32:23.918Z,22.80
2019-06-15T07:34:52.444Z,23.10
2019-06-15T07:37:20.947Z,23.10
2019-06-15T07:39:49.438Z,23.10
2019-06-15T07:42:17.935Z,23.20
2019-06-15T07:44:46.398Z,23.30
2019-06-15T07:47:14.854Z,23.30
2019-06-15T07:49:43.330Z,23.40
2019-06-15T07:52:11.767Z,23.40
2019-06-15T07:54:40.330Z,23.40
2019-06-15T07:57:08.772Z,23.40
2019-06-15T07:59:37.303Z,23.40
2019-06-15T08:02:05.811Z,23.50
2019-06-15T08:04:34.297Z,23.60
2019-06-15T08:07:02.861Z,23.80
2019-06-15T08:09:31.327Z,24.00
2019-06-15T08:11:59.756Z,24.20
2019-06-15T08:14:28.218Z,24.50
2019-06-15T08:16:56.660Z,24.70
2019-06-15T08:19:25.116Z,24.60
2019-06-15T08:21:53.631Z,24.60
2019-06-15T08:24:22.094Z,24.50
2019-06-15T08:26:50.536Z,24.40
2019-06-15T08:29:19.008Z,24.20
2019-06-15T08:31:47.438Z,24.00
2019-06-15T08:34:15.901Z,23.70
2019-06-15T08:36:44.335Z,23.50
2019-06-15T08:39:12.803Z,23.30
2019-06-15T08:41:41.489Z,23.10
2019-06-15T08:44:10.034Z,23.00
2019-06-15T08:46:38.524Z,22.90
2019-06-15T08:49:07.027Z,22.90
2019-06-15T08:51:35.500Z,22.90
2019-06-15T08:54:03.933Z,23.10
2019-06-15T08:56:33.685Z,23.30
2019-06-15T08:59:02.126Z,23.60
2019-06-15T09:01:30.638Z,24.00
2019-06-15T09:03:59.106Z,24.30
2019-06-15T09:06:27.596Z,24.40
2019-06-15T09:08:56.042Z,24.70
2019-06-15T09:11:24.510Z,24.90
2019-06-15T09:13:53.023Z,25.10
2019-06-15T09:16:21.956Z,25.20
2019-06-15T09:18:50.410Z,25.30
2019-06-15T09:21:18.942Z,25.30
2019-06-15T09:23:47.439Z,25.10
2019-06-15T09:26:16.321Z,25.00
2019-06-15T09:28:44.839Z,24.80
2019-06-15T09:31:13.332Z,24.80
2019-06-15T09:33:41.855Z,24.80
2019-06-15T09:36:10.376Z,24.70
2019-06-15T09:38:38.838Z,24.60
2019-06-15T09:41:07.409Z,24.60
2019-06-15T09:43:35.876Z,24.50
2019-06-15T09:46:04.651Z,24.40
2019-06-15T09:48:33.085Z,24.30
2019-06-15T09:51:02.235Z,24.10
2019-06-15T09:53:30.694Z,24.10
2019-06-15T09:55:59.246Z,24.10
2019-06-15T09:58:27.749Z,24.10
2019-06-15T10:00:56.187Z,24.20
2019-06-15T10:03:24.664Z,24.30
2019-06-15T10:05:53.218Z,24.40
2019-06-15T10:08:21.674Z,24.50
2019-06-15T10:10:50.121Z,24.60
2019-06-15T10:13:18.913Z,24.70
2019-06-15T10:15:47.483Z,24.80
2019-06-15T10:18:16.260Z,24.90
2019-06-15T10:20:44.697Z,25.00
2019-06-15T10:23:13.627Z,25.20
2019-06-15T10:25:42.140Z,25.60
2019-06-15T10:28:10.739Z,26.10
2019-06-15T10:30:39.174Z,26.70
2019-06-15T10:33:07.635Z,27.20
2019-06-15T10:35:36.335Z,27.60
2019-06-15T10:38:04.800Z,28.10
2019-06-15T10:40:33.258Z,28.40
2019-06-15T10:43:01.787Z,28.60
2019-06-15T10:45:30.381Z,28.70
2019-06-15T10:47:58.894Z,29.10
2019-06-15T10:50:27.343Z,29.60
2019-06-15T10:52:55.775Z,29.90
2019-06-15T10:55:24.282Z,30.40
2019-06-15T10:57:52.766Z,30.60
2019-06-15T11:00:21.716Z,30.80
2019-06-15T11:02:50.236Z,30.90
2019-06-15T11:05:20.487Z,31.00
2019-06-15T11:07:48.988Z,31.30
2019-06-15T11:10:20.525Z,31.60
2019-06-15T11:12:48.960Z,31.80
2019-06-15T11:15:17.408Z,31.80
2019-06-15T11:17:46.583Z,31.70
2019-06-15T11:20:15.308Z,31.70
2019-06-15T11:22:43.826Z,31.60
2019-06-15T11:25:12.425Z,31.50
2019-06-15T11:27:40.927Z,31.20
2019-06-15T11:30:14.154Z,30.50
2019-06-15T11:32:40.455Z,29.80
2019-06-15T11:35:09.315Z,29.10
2019-06-15T11:37:37.825Z,28.50
2019-06-15T11:40:07.524Z,28.00
2019-06-15T11:42:35.998Z,27.50
2019-06-15T11:45:06.684Z,27.20
2019-06-15T11:47:35.667Z,26.90
2019-06-15T11:50:05.443Z,26.80
2019-06-15T11:52:33.879Z,26.90
2019-06-15T11:55:02.331Z,27.40
2019-06-15T11:57:31.201Z,27.90
2019-06-15T12:00:00.046Z,28.40
2019-06-15T12:02:28.515Z,28.90
2019-06-15T12:04:58.731Z,29.40
2019-06-15T12:07:27.143Z,30.00
2019-06-15T12:09:55.592Z,30.50
2019-06-15T12:12:24.018Z,31.10
2019-06-15T12:14:52.507Z,31.60
2019-06-15T12:17:21.026Z,32.30
2019-06-15T12:19:49.454Z,32.80
2019-06-15T12:22:17.916Z,33.20
2019-06-15T12:24:46.379Z,33.60
2019-06-15T12:27:14.828Z,33.90
2019-06-15T12:29:43.262Z,33.90
2019-06-15T12:32:11.748Z,33.90
2019-06-15T12:34:40.184Z,34.10
2019-06-15T12:37:08.644Z,34.00
2019-06-15T12:39:41.661Z,33.70
2019-06-15T12:42:07.353Z,33.10
2019-06-15T12:44:35.773Z,32.30
2019-06-15T12:47:04.229Z,31.50
2019-06-15T12:49:32.795Z,30.90
2019-06-15T12:52:01.318Z,30.50
2019-06-15T12:54:29.754Z,30.10
2019-06-15T12:56:58.206Z,29.90
2019-06-15T12:59:26.740Z,30.10
2019-06-15T13:01:55.222Z,30.60
2019-06-15T13:04:23.738Z,31.30
2019-06-15T13:06:52.659Z,32.20
2019-06-15T13:09:21.095Z,33.10
2019-06-15T13:11:49.559Z,33.70
2019-06-15T13:14:18.380Z,34.00
2019-06-15T13:16:48.100Z,34.00
2019-06-15T13:19:16.816Z,34.00
2019-06-15T13:21:45.651Z,34.30
2019-06-15T13:24:14.427Z,34.70
2019-06-15T13:26:42.896Z,35.10
2019-06-15T13:29:11.339Z,35.60
2019-06-15T13:31:39.863Z,36.00
2019-06-15T13:34:08.325Z,36.50
2019-06-15T13:36:36.846Z,37.10
2019-06-15T13:39:07.018Z,37.20
2019-06-15T13:41:35.471Z,37.10
2019-06-15T13:44:03.922Z,36.90
2019-06-15T13:46:32.384Z,36.80
2019-06-15T13:49:00.811Z,36.90
2019-06-15T13:51:29.278Z,36.80
2019-06-15T13:53:57.713Z,36.60
2019-06-15T13:56:26.246Z,36.40
2019-06-15T13:58:54.697Z,36.40
2019-06-15T14:01:33.678Z,36.50
2019-06-15T14:03:53.316Z,36.60
2019-06-15T14:06:21.736Z,36.70
2019-06-15T14:08:50.225Z,36.80
2019-06-15T14:11:18.707Z,37.00
2019-06-15T14:13:47.198Z,37.40
2019-06-15T14:16:15.631Z,37.60
2019-06-15T14:18:44.101Z,37.60
2019-06-15T14:21:12.791Z,37.20
2019-06-15T14:23:41.247Z,36.70
2019-06-15T14:26:09.759Z,36.30
2019-06-15T14:28:38.211Z,36.10
2019-06-15T14:31:06.648Z,36.10
2019-06-15T14:33:35.103Z,36.30
2019-06-15T14:36:03.707Z,36.50
2019-06-15T14:38:32.278Z,37.00
2019-06-15T14:41:00.792Z,37.50
2019-06-15T14:43:29.268Z,38.00
2019-06-15T14:45:59.843Z,38.30
2019-06-15T14:48:27.938Z,38.50
2019-06-15T14:50:56.366Z,38.50
2019-06-15T14:53:25.006Z,38.50
2019-06-15T14:55:53.459Z,38.50
2019-06-15T14:58:21.906Z,38.50
2019-06-15T15:00:50.344Z,38.50
2019-06-15T15:03:19.087Z,38.40
2019-06-15T15:05:47.527Z,38.30
2019-06-15T15:08:18.099Z,38.40
2019-06-15T15:10:46.574Z,38.40
2019-06-15T15:13:15.060Z,38.30
2019-06-15T15:15:43.500Z,38.30
2019-06-15T15:18:11.940Z,38.20
2019-06-15T15:20:40.376Z,38.10
2019-06-15T15:23:08.834Z,37.90
2019-06-15T15:25:37.257Z,37.90
2019-06-15T15:28:07.371Z,38.10
2019-06-15T15:30:40.597Z,38.30
2019-06-15T15:33:09.850Z,38.50
2019-06-15T15:35:38.304Z,38.60
2019-06-15T15:38:06.848Z,38.50
2019-06-15T15:40:36.529Z,38.40
2019-06-15T15:43:06.931Z,38.00
2019-06-15T15:45:36.992Z,37.70
2019-06-15T15:48:06.841Z,37.40
2019-06-15T15:50:37.084Z,37.30
2019-06-15T15:53:06.424Z,37.10
2019-06-15T15:55:34.899Z,36.80
2019-06-15T15:58:03.375Z,36.70
2019-06-15T16:00:33.851Z,36.60
2019-06-15T16:03:02.572Z,36.60
2019-06-15T16:05:31.103Z,36.30
2019-06-15T16:07:59.786Z,35.90
2019-06-15T16:10:28.494Z,35.40
2019-06-15T16:12:56.976Z,34.80
2019-06-15T16:15:26.533Z,34.10
2019-06-15T16:17:56.351Z,33.50
2019-06-15T16:20:26.408Z,33.10
2019-06-15T16:22:56.417Z,32.70
2019-06-15T16:25:26.584Z,32.30
2019-06-15T16:27:56.663Z,31.90
2019-06-15T16:30:59.804Z,31.50
2019-06-15T16:33:04.322Z,31.10
2019-06-15T16:35:36.144Z,30.60
2019-06-15T16:38:06.596Z,30.10
2019-06-15T16:40:38.945Z,29.80
2019-06-15T16:43:07.890Z,29.50
2019-06-15T16:45:37.051Z,29.30
2019-06-15T16:48:06.424Z,29.10
2019-06-15T16:50:36.682Z,29.00
2019-06-15T16:53:05.505Z,28.80
2019-06-15T16:55:36.525Z,28.70
2019-06-15T16:58:07.139Z,28.70
2019-06-15T17:00:36.429Z,28.50
2019-06-15T17:03:19.770Z,28.50
2019-06-15T17:05:36.328Z,28.40
2019-06-15T17:08:06.939Z,28.30
2019-06-15T17:10:40.344Z,28.20
2019-06-15T17:13:09.027Z,28.10
2019-06-15T17:15:38.148Z,28.10
2019-06-15T17:18:07.232Z,28.00
2019-06-15T17:20:52.120Z,28.00
2019-06-15T17:23:21.279Z,27.90
2019-06-15T17:25:49.893Z,27.80
2019-06-15T17:28:18.667Z,27.80
2019-06-15T17:30:47.119Z,27.80
2019-06-15T17:33:16.652Z,27.80
2019-06-15T17:35:56.265Z,27.90
2019-06-15T17:38:16.746Z,27.80
2019-06-15T17:40:46.112Z,27.80
2019-06-15T17:43:16.221Z,27.80
2019-06-15T17:45:46.874Z,27.80
2019-06-15T17:48:17.113Z,27.70
2019-06-15T17:50:47.202Z,27.70
2019-06-15T17:53:16.966Z,27.70
2019-06-15T17:55:46.707Z,27.70
2019-06-15T17:58:17.021Z,27.70
2019-06-15T18:00:47.986Z,27.60
2019-06-15T18:03:17.090Z,27.50
2019-06-15T18:05:47.984Z,27.50
2019-06-15T18:08:16.702Z,27.40
2019-06-15T18:10:47.621Z,27.40
2019-06-15T18:13:16.795Z,27.30
2019-06-15T18:15:47.689Z,27.30
2019-06-15T18:18:16.776Z,27.30
2019-06-15T18:20:45.660Z,27.20
2019-06-15T18:23:17.737Z,27.20
2019-06-15T18:25:46.824Z,27.20
2019-06-15T18:28:17.569Z,27.10
2019-06-15T18:30:46.815Z,27.00
2019-06-15T18:33:16.529Z,27.00
2019-06-15T18:35:47.513Z,27.00
2019-06-15T18:38:16.467Z,26.90
2019-06-15T18:40:44.899Z,26.80
2019-06-15T18:43:14.253Z,26.80
2019-06-15T18:45:44.038Z,26.70
2019-06-15T18:48:16.870Z,26.60
2019-06-15T18:50:45.363Z,26.50
2019-06-15T18:53:13.791Z,26.50
2019-06-15T18:55:42.429Z,26.40
2019-06-15T18:58:10.865Z,26.40
2019-06-15T19:00:39.415Z,26.30
2019-06-15T19:03:07.859Z,26.30
2019-06-15T19:05:37.364Z,26.30
2019-06-15T19:08:06.821Z,26.20
2019-06-15T19:10:38.262Z,26.20
2019-06-15T19:13:07.478Z,26.10
2019-06-15T19:15:37.218Z,26.00
2019-06-15T19:18:07.631Z,26.00
2019-06-15T19:20:37.137Z,25.90
2019-06-15T19:23:07.089Z,25.90
2019-06-15T19:25:36.584Z,25.80
2019-06-15T19:28:05.478Z,25.80
2019-06-15T19:30:37.041Z,25.70
2019-06-15T19:33:05.790Z,25.70
2019-06-15T19:35:36.347Z,25.70
2019-06-15T19:38:06.373Z,25.60
2019-06-15T19:40:37.548Z,25.60
2019-06-15T19:43:06.519Z,25.60
2019-06-15T19:45:37.094Z,25.50
2019-06-15T19:48:06.637Z,25.40
2019-06-15T19:50:36.211Z,25.40
2019-06-15T19:53:07.080Z,25.40
2019-06-15T19:55:36.179Z,25.30
2019-06-15T19:58:07.234Z,25.30
2019-06-15T20:00:36.423Z,25.30
2019-06-15T20:03:06.977Z,25.30
2019-06-15T20:05:37.025Z,25.20
2019-06-15T20:08:07.023Z,25.20
2019-06-15T20:10:37.026Z,25.20
2019-06-15T20:13:07.051Z,25.10
2019-06-15T20:15:37.650Z,25.10
2019-06-15T20:18:07.017Z,25.00
2019-06-15T20:20:36.970Z,24.80
2019-06-15T20:23:07.157Z,24.70
2019-06-15T20:25:36.813Z,24.60
2019-06-15T20:28:07.057Z,24.50
2019-06-15T20:30:37.022Z,24.40
2019-06-15T20:33:07.895Z,24.30
2019-06-15T20:35:36.075Z,24.30
2019-06-15T20:38:04.675Z,24.20
2019-06-15T20:40:52.524Z,24.10
2019-06-15T20:43:20.988Z,24.10
2019-06-15T20:45:49.426Z,24.00
2019-06-15T20:48:17.883Z,24.00
2019-06-15T20:50:47.177Z,24.00
2019-06-15T20:53:16.985Z,23.90
2019-06-15T20:55:46.589Z,23.90
2019-06-15T20:58:17.073Z,23.90
2019-06-15T21:00:47.639Z,23.90
2019-06-15T21:03:16.159Z,23.90
2019-06-15T21:05:47.372Z,23.90
2019-06-15T21:08:15.971Z,23.90
2019-06-15T21:10:46.387Z,23.90
2019-06-15T21:13:16.739Z,23.90
2019-06-15T21:15:47.359Z,23.90
2019-06-15T21:18:16.386Z,23.90
2019-06-15T21:20:47.081Z,23.90
2019-06-15T21:23:16.289Z,23.80
2019-06-15T21:25:46.727Z,23.70
2019-06-15T21:28:16.917Z,23.60
2019-06-15T21:30:47.136Z,23.60
2019-06-15T21:33:15.867Z,23.50
2019-06-15T21:35:49.875Z,23.50
2019-06-15T21:38:14.491Z,23.50
2019-06-15T21:40:47.284Z,23.50
2019-06-15T21:43:14.729Z,23.40
2019-06-15T21:45:43.184Z,23.40
2019-06-15T21:48:12.044Z,23.40
2019-06-15T21:50:40.564Z,23.40
2019-06-15T21:53:09.018Z,23.40
2019-06-15T21:55:37.489Z,23.30
2019-06-15T21:58:07.663Z,23.30
2019-06-15T22:00:40.802Z,23.30
2019-06-15T22:03:09.251Z,23.30
2019-06-15T22:05:37.776Z,23.30
2019-06-15T22:08:06.519Z,23.30
2019-06-15T22:10:36.061Z,23.30
2019-06-15T22:13:06.549Z,23.30
2019-06-15T22:15:34.862Z,23.30
2019-06-15T22:18:03.292Z,23.30
2019-06-15T22:20:31.774Z,23.30
2019-06-15T22:23:01.603Z,23.20
2019-06-15T22:25:30.066Z,23.20
2019-06-15T22:27:58.683Z,23.20
2019-06-15T22:30:27.740Z,23.20
2019-06-15T22:32:56.406Z,23.10
2019-06-15T22:35:26.926Z,23.00
2019-06-15T22:37:56.222Z,23.00
2019-06-15T22:40:24.898Z,22.90
2019-06-15T22:42:53.461Z,22.90
2019-06-15T22:45:21.964Z,22.80
2019-06-15T22:47:50.480Z,22.90
2019-06-15T22:50:19.082Z,22.80
2019-06-15T22:52:47.572Z,22.80
2019-06-15T22:55:16.681Z,22.90
2019-06-15T22:57:46.082Z,22.80
2019-06-15T23:00:17.785Z,22.80
2019-06-15T23:02:46.277Z,22.70
2019-06-15T23:05:17.114Z,22.70
2019-06-15T23:07:47.170Z,22.70
2019-06-15T23:10:16.684Z,22.70
2019-06-15T23:12:46.375Z,22.70
2019-06-15T23:15:17.328Z,22.80
2019-06-15T23:17:46.655Z,22.80
2019-06-15T23:20:17.053Z,22.80
2019-06-15T23:22:46.768Z,22.70
2019-06-15T23:25:16.776Z,22.70
2019-06-15T23:27:46.930Z,22.70
2019-06-15T23:30:16.294Z,22.70
2019-06-15T23:32:46.805Z,22.70
2019-06-15T23:35:16.787Z,22.60
2019-06-15T23:37:46.472Z,22.60
2019-06-15T23:40:18.958Z,22.60
2019-06-15T23:42:48.855Z,22.50
2019-06-15T23:45:19.485Z,22.50
2019-06-15T23:47:48.279Z,22.50
2019-06-15T23:50:18.123Z,22.50
2019-06-15T23:52:48.023Z,22.50
2019-06-15T23:55:17.204Z,22.50
2019-06-15T23:57:46.468Z,22.50
